createdAt,value
2018-06-30T00:00:17.258Z,17.55
2018-06-30T00:01:17.257Z,17.47
2018-06-30T00:02:17.581Z,17.48
2018-06-30T00:03:17.219Z,17.36
2018-06-30T00:04:17.396Z,17.30
2018-06-30T00:05:17.250Z,17.33
2018-06-30T00:06:17.171Z,17.44
2018-06-30T00:07:17.370Z,17.41
2018-06-30T00:08:17.090Z,17.29
2018-06-30T00:09:17.075Z,17.29
2018-06-30T00:10:17.144Z,17.30
2018-06-30T00:11:17.161Z,17.20
2018-06-30T00:12:17.066Z,17.22
2018-06-30T00:13:17.033Z,17.28
2018-06-30T00:14:17.017Z,17.28
2018-06-30T00:15:17.713Z,17.26
2018-06-30T00:16:17.069Z,17.25
2018-06-30T00:17:17.132Z,17.20
2018-06-30T00:18:17.058Z,17.25
2018-06-30T00:19:17.168Z,17.20
2018-06-30T00:20:16.950Z,17.11
2018-06-30T00:21:16.936Z,17.10
2018-06-30T00:22:16.927Z,17.04
2018-06-30T00:23:16.941Z,17.00
2018-06-30T00:24:16.909Z,17.07
2018-06-30T00:25:16.890Z,16.98
2018-06-30T00:26:16.884Z,17.06
2018-06-30T00:27:16.870Z,16.99
2018-06-30T00:28:16.878Z,16.93
2018-06-30T00:29:16.854Z,16.93
2018-06-30T00:30:16.835Z,16.83
2018-06-30T00:31:16.821Z,16.85
2018-06-30T00:32:16.813Z,16.83
2018-06-30T00:33:16.838Z,16.89
2018-06-30T00:34:16.786Z,16.78
2018-06-30T00:35:16.782Z,16.85
2018-06-30T00:36:16.762Z,16.81
2018-06-30T00:37:16.754Z,16.81
2018-06-30T00:38:16.848Z,16.75
2018-06-30T00:39:16.773Z,16.73
2018-06-30T00:40:16.724Z,16.77
2018-06-30T00:41:16.708Z,16.70
2018-06-30T00:42:16.702Z,16.71
2018-06-30T00:43:16.685Z,16.73
2018-06-30T00:44:16.673Z,16.71
2018-06-30T00:45:16.688Z,16.58
2018-06-30T00:46:16.653Z,16.67
2018-06-30T00:47:16.644Z,16.65
2018-06-30T00:48:16.629Z,16.56
2018-06-30T00:49:16.621Z,16.52
2018-06-30T00:50:16.634Z,16.56
2018-06-30T00:51:16.590Z,16.58
2018-06-30T00:52:16.591Z,16.53
2018-06-30T00:53:16.566Z,16.48
2018-06-30T00:54:16.564Z,16.49
2018-06-30T00:55:16.566Z,16.45
2018-06-30T00:56:16.541Z,16.45
2018-06-30T00:57:16.521Z,16.37
2018-06-30T00:58:16.510Z,16.35
2018-06-30T00:59:16.507Z,16.40
2018-06-30T01:00:16.518Z,16.37
2018-06-30T01:01:16.483Z,16.38
2018-06-30T01:02:16.472Z,16.38
2018-06-30T01:03:16.455Z,16.34
2018-06-30T01:04:16.453Z,16.30
2018-06-30T01:05:16.435Z,16.23
2018-06-30T01:06:16.439Z,16.18
2018-06-30T01:07:16.407Z,16.04
2018-06-30T01:08:16.444Z,16.25
2018-06-30T01:09:16.398Z,16.16
2018-06-30T01:10:16.375Z,16.12
2018-06-30T01:11:16.394Z,16.11
2018-06-30T01:12:16.347Z,16.15
2018-06-30T01:13:16.343Z,16.12
2018-06-30T01:14:16.327Z,16.09
2018-06-30T01:15:16.315Z,16.04
2018-06-30T01:16:16.307Z,15.97
2018-06-30T01:17:16.310Z,16.00
2018-06-30T01:18:16.278Z,15.99
2018-06-30T01:19:16.273Z,16.04
2018-06-30T01:20:16.261Z,15.96
2018-06-30T01:21:16.254Z,15.94
2018-06-30T01:22:16.263Z,15.86
2018-06-30T01:23:16.224Z,15.93
2018-06-30T01:24:16.211Z,15.85
2018-06-30T01:25:16.196Z,15.79
2018-06-30T01:26:16.192Z,15.92
2018-06-30T01:27:16.194Z,15.78
2018-06-30T01:28:16.163Z,15.86
2018-06-30T01:29:16.158Z,15.76
2018-06-30T01:30:16.139Z,15.76
2018-06-30T01:31:16.136Z,15.85
2018-06-30T01:32:16.141Z,15.84
2018-06-30T01:33:16.106Z,15.84
2018-06-30T01:34:16.094Z,15.81
2018-06-30T01:35:16.085Z,15.84
2018-06-30T01:36:16.078Z,15.79
2018-06-30T01:37:16.090Z,15.74
2018-06-30T01:38:16.047Z,15.75
2018-06-30T01:39:16.043Z,15.74
2018-06-30T01:40:16.025Z,15.68
2018-06-30T01:41:16.014Z,15.72
2018-06-30T01:42:16.004Z,15.63
2018-06-30T01:43:16.012Z,15.61
2018-06-30T01:44:15.976Z,15.60
2018-06-30T01:45:15.973Z,15.59
2018-06-30T01:46:15.958Z,15.59
2018-06-30T01:47:15.946Z,15.52
2018-06-30T01:48:15.970Z,15.56
2018-06-30T01:49:15.918Z,15.52
2018-06-30T01:50:15.942Z,15.54
2018-06-30T01:51:15.903Z,15.57
2018-06-30T01:52:15.882Z,15.51
2018-06-30T01:53:15.884Z,15.51
2018-06-30T01:54:15.883Z,15.45
2018-06-30T01:55:15.855Z,15.46
2018-06-30T01:56:15.845Z,15.41
2018-06-30T01:57:15.832Z,15.33
2018-06-30T01:58:15.816Z,15.36
2018-06-30T01:59:15.830Z,15.46
2018-06-30T02:00:15.793Z,15.36
2018-06-30T02:01:15.784Z,15.30
2018-06-30T02:02:15.772Z,15.36
2018-06-30T02:03:15.758Z,15.39
2018-06-30T02:04:15.773Z,15.26
2018-06-30T02:05:15.735Z,15.24
2018-06-30T02:06:15.723Z,15.24
2018-06-30T02:07:15.715Z,15.30
2018-06-30T02:08:15.700Z,15.31
2018-06-30T02:09:15.713Z,15.24
2018-06-30T02:10:15.681Z,15.31
2018-06-30T02:11:15.671Z,15.30
2018-06-30T02:12:15.657Z,15.24
2018-06-30T02:13:15.641Z,15.17
2018-06-30T02:14:15.650Z,15.20
2018-06-30T02:15:15.625Z,15.24
2018-06-30T02:16:15.607Z,15.20
2018-06-30T02:17:15.602Z,15.23
2018-06-30T02:18:15.591Z,15.11
2018-06-30T02:19:15.604Z,15.17
2018-06-30T02:20:15.568Z,15.09
2018-06-30T02:21:15.550Z,15.09
2018-06-30T02:22:15.543Z,15.15
2018-06-30T02:23:15.528Z,15.06
2018-06-30T02:24:15.512Z,15.13
2018-06-30T02:25:15.531Z,15.03
2018-06-30T02:26:15.493Z,15.09
2018-06-30T02:27:15.479Z,15.03
2018-06-30T02:28:15.474Z,14.99
2018-06-30T02:29:15.454Z,15.03
2018-06-30T02:30:15.487Z,15.02
2018-06-30T02:31:15.433Z,14.99
2018-06-30T02:32:15.424Z,15.05
2018-06-30T02:33:15.414Z,15.03
2018-06-30T02:34:15.399Z,14.93
2018-06-30T02:35:15.396Z,14.86
2018-06-30T02:36:15.413Z,14.87
2018-06-30T02:37:15.366Z,14.91
2018-06-30T02:38:15.362Z,14.91
2018-06-30T02:39:15.443Z,14.94
2018-06-30T02:40:15.338Z,14.91
2018-06-30T02:41:15.322Z,14.98
2018-06-30T02:42:15.334Z,14.84
2018-06-30T02:43:15.305Z,14.83
2018-06-30T02:44:15.284Z,14.84
2018-06-30T02:45:15.279Z,14.84
2018-06-30T02:46:15.266Z,14.83
2018-06-30T02:47:15.289Z,14.83
2018-06-30T02:48:15.238Z,14.80
2018-06-30T02:49:15.234Z,14.81
2018-06-30T02:50:15.222Z,14.83
2018-06-30T02:51:15.204Z,14.87
2018-06-30T02:52:15.228Z,14.83
2018-06-30T02:53:15.188Z,14.80
2018-06-30T02:54:15.174Z,14.72
2018-06-30T02:55:15.166Z,14.72
2018-06-30T02:56:15.154Z,14.75
2018-06-30T02:57:15.137Z,14.75
2018-06-30T02:58:15.157Z,14.69
2018-06-30T02:59:15.120Z,14.78
2018-06-30T03:00:15.104Z,14.64
2018-06-30T03:01:15.089Z,14.61
2018-06-30T03:02:15.138Z,14.60
2018-06-30T03:03:15.116Z,14.57
2018-06-30T03:04:15.128Z,14.54
2018-06-30T03:05:15.099Z,14.60
2018-06-30T03:06:15.037Z,14.52
2018-06-30T03:07:15.075Z,14.56
2018-06-30T03:08:15.057Z,14.54
2018-06-30T03:09:15.075Z,14.57
2018-06-30T03:10:15.049Z,14.50
2018-06-30T03:11:15.025Z,14.53
2018-06-30T03:12:14.966Z,14.46
2018-06-30T03:13:14.959Z,14.52
2018-06-30T03:14:14.965Z,14.49
2018-06-30T03:15:14.939Z,14.42
2018-06-30T03:16:14.921Z,14.53
2018-06-30T03:17:14.912Z,14.57
2018-06-30T03:18:14.895Z,14.44
2018-06-30T03:19:14.924Z,14.46
2018-06-30T03:20:14.873Z,14.39
2018-06-30T03:21:14.870Z,14.50
2018-06-30T03:22:14.860Z,14.57
2018-06-30T03:23:14.843Z,14.54
2018-06-30T03:24:14.842Z,14.38
2018-06-30T03:25:14.842Z,14.53
2018-06-30T03:26:14.815Z,14.53
2018-06-30T03:27:14.797Z,14.38
2018-06-30T03:28:14.790Z,14.44
2018-06-30T03:29:14.772Z,14.46
2018-06-30T03:30:14.794Z,14.53
2018-06-30T03:31:14.748Z,14.31
2018-06-30T03:32:14.749Z,14.43
2018-06-30T03:33:14.732Z,14.46
2018-06-30T03:34:14.723Z,14.38
2018-06-30T03:35:14.704Z,14.39
2018-06-30T03:36:14.719Z,14.42
2018-06-30T03:37:14.687Z,14.42
2018-06-30T03:38:14.668Z,14.38
2018-06-30T03:39:14.665Z,14.38
2018-06-30T03:40:14.652Z,14.39
2018-06-30T03:41:14.670Z,14.39
2018-06-30T03:42:14.626Z,14.43
2018-06-30T03:43:14.611Z,14.38
2018-06-30T03:44:14.603Z,14.42
2018-06-30T03:45:14.594Z,14.37
2018-06-30T03:46:14.597Z,14.35
2018-06-30T03:47:14.592Z,14.39
2018-06-30T03:48:14.560Z,14.39
2018-06-30T03:49:14.556Z,14.39
2018-06-30T03:50:14.539Z,14.42
2018-06-30T03:51:14.528Z,14.43
2018-06-30T03:52:14.532Z,14.43
2018-06-30T03:53:14.506Z,14.29
2018-06-30T03:54:14.495Z,14.28
2018-06-30T03:55:14.476Z,14.44
2018-06-30T03:56:14.466Z,14.34
2018-06-30T03:57:14.489Z,14.38
2018-06-30T03:58:14.442Z,14.21
2018-06-30T03:59:14.432Z,14.27
2018-06-30T04:00:14.424Z,14.39
2018-06-30T04:01:14.414Z,14.29
2018-06-30T04:02:14.405Z,14.32
2018-06-30T04:03:14.406Z,14.44
2018-06-30T04:04:14.377Z,14.39
2018-06-30T04:05:14.361Z,14.42
2018-06-30T04:06:14.359Z,14.32
2018-06-30T04:07:14.339Z,14.37
2018-06-30T04:08:14.362Z,14.31
2018-06-30T04:09:14.326Z,14.32
2018-06-30T04:10:14.312Z,14.43
2018-06-30T04:11:14.298Z,14.35
2018-06-30T04:12:14.281Z,14.37
2018-06-30T04:13:14.280Z,14.38
2018-06-30T04:14:14.283Z,14.39
2018-06-30T04:15:14.259Z,14.29
2018-06-30T04:16:14.243Z,14.32
2018-06-30T04:17:14.228Z,14.34
2018-06-30T04:18:14.223Z,14.37
2018-06-30T04:19:14.237Z,14.37
2018-06-30T04:20:14.194Z,14.31
2018-06-30T04:21:14.179Z,14.31
2018-06-30T04:22:14.177Z,14.42
2018-06-30T04:23:14.156Z,14.47
2018-06-30T04:24:14.148Z,14.43
2018-06-30T04:25:14.162Z,14.47
2018-06-30T04:26:14.121Z,14.44
2018-06-30T04:27:14.120Z,14.39
2018-06-30T04:28:14.106Z,14.53
2018-06-30T04:29:14.091Z,14.46
2018-06-30T04:30:14.109Z,14.47
2018-06-30T04:31:14.071Z,14.54
2018-06-30T04:32:14.056Z,14.62
2018-06-30T04:33:14.049Z,14.64
2018-06-30T04:34:14.038Z,14.62
2018-06-30T04:35:14.029Z,14.65
2018-06-30T04:36:14.039Z,14.57
2018-06-30T04:37:14.006Z,14.65
2018-06-30T04:38:13.986Z,14.71
2018-06-30T04:39:13.982Z,14.65
2018-06-30T04:40:13.962Z,14.71
2018-06-30T04:41:13.995Z,14.78
2018-06-30T04:42:13.949Z,14.64
2018-06-30T04:43:13.931Z,14.81
2018-06-30T04:44:13.925Z,14.80
2018-06-30T04:45:14.007Z,14.87
2018-06-30T04:46:13.896Z,14.93
2018-06-30T04:47:13.913Z,14.91
2018-06-30T04:48:13.871Z,14.94
2018-06-30T04:49:13.869Z,14.93
2018-06-30T04:50:13.855Z,14.91
2018-06-30T04:51:13.836Z,14.95
2018-06-30T04:52:13.865Z,15.05
2018-06-30T04:53:13.815Z,15.03
2018-06-30T04:54:13.812Z,15.03
2018-06-30T04:55:13.791Z,14.99
2018-06-30T04:56:13.786Z,15.01
2018-06-30T04:57:13.767Z,15.09
2018-06-30T04:58:13.777Z,15.09
2018-06-30T04:59:13.752Z,15.09
2018-06-30T05:00:13.732Z,15.13
2018-06-30T05:01:13.730Z,15.21
2018-06-30T05:02:13.712Z,15.24
2018-06-30T05:03:13.740Z,15.35
2018-06-30T05:04:13.688Z,15.33
2018-06-30T05:05:13.679Z,15.39
2018-06-30T05:06:13.668Z,15.33
2018-06-30T05:07:13.654Z,15.33
2018-06-30T05:08:13.644Z,15.33
2018-06-30T05:09:13.665Z,15.36
2018-06-30T05:10:13.622Z,15.41
2018-06-30T05:11:13.606Z,15.39
2018-06-30T05:12:13.592Z,15.42
2018-06-30T05:13:13.594Z,15.48
2018-06-30T05:14:13.572Z,15.45
2018-06-30T05:15:13.589Z,15.56
2018-06-30T05:16:13.555Z,15.52
2018-06-30T05:17:13.538Z,15.67
2018-06-30T05:18:13.534Z,15.67
2018-06-30T05:19:13.516Z,15.72
2018-06-30T05:20:13.523Z,15.72
2018-06-30T05:21:13.499Z,15.75
2018-06-30T05:22:13.481Z,15.84
2018-06-30T05:23:13.466Z,15.81
2018-06-30T05:24:13.465Z,15.88
2018-06-30T05:25:13.475Z,16.00
2018-06-30T05:26:13.443Z,16.06
2018-06-30T05:27:13.421Z,16.06
2018-06-30T05:28:13.414Z,16.09
2018-06-30T05:29:13.413Z,16.16
2018-06-30T05:30:13.387Z,16.14
2018-06-30T05:31:13.410Z,16.31
2018-06-30T05:32:13.373Z,16.18
2018-06-30T05:33:13.361Z,16.30
2018-06-30T05:34:13.345Z,16.40
2018-06-30T05:35:13.336Z,16.35
2018-06-30T05:36:13.346Z,16.37
2018-06-30T05:37:13.313Z,16.42
2018-06-30T05:38:13.304Z,16.42
2018-06-30T05:39:13.293Z,16.37
2018-06-30T05:40:13.279Z,16.38
2018-06-30T05:41:13.350Z,16.49
2018-06-30T05:42:13.397Z,16.48
2018-06-30T05:43:13.249Z,16.45
2018-06-30T05:44:13.225Z,16.55
2018-06-30T05:45:13.224Z,16.56
2018-06-30T05:46:13.212Z,16.56
2018-06-30T05:47:13.218Z,16.62
2018-06-30T05:48:13.194Z,16.70
2018-06-30T05:49:13.171Z,16.70
2018-06-30T05:50:13.164Z,16.77
2018-06-30T05:51:13.149Z,16.78
2018-06-30T05:52:13.172Z,16.85
2018-06-30T05:53:13.135Z,16.92
2018-06-30T05:54:13.116Z,16.90
2018-06-30T05:55:13.105Z,16.99
2018-06-30T05:56:13.095Z,17.06
2018-06-30T05:57:13.083Z,17.10
2018-06-30T05:58:13.078Z,17.17
2018-06-30T05:59:13.053Z,17.18
2018-06-30T06:00:13.050Z,17.23
2018-06-30T06:01:13.030Z,17.26
2018-06-30T06:02:13.018Z,17.35
2018-06-30T06:03:13.041Z,17.40
2018-06-30T06:04:12.995Z,17.36
2018-06-30T06:05:12.991Z,17.59
2018-06-30T06:06:12.980Z,17.59
2018-06-30T06:07:12.959Z,17.59
2018-06-30T06:08:12.983Z,17.63
2018-06-30T06:09:12.940Z,17.69
2018-06-30T06:10:12.925Z,17.79
2018-06-30T06:11:12.922Z,17.87
2018-06-30T06:12:12.910Z,17.85
2018-06-30T06:13:13.346Z,17.88
2018-06-30T06:14:12.909Z,17.95
2018-06-30T06:15:12.920Z,18.12
2018-06-30T06:16:12.857Z,18.17
2018-06-30T06:17:12.855Z,18.22
2018-06-30T06:18:12.843Z,18.25
2018-06-30T06:19:12.861Z,18.37
2018-06-30T06:20:12.859Z,18.49
2018-06-30T06:21:12.815Z,18.55
2018-06-30T06:22:12.788Z,18.67
2018-06-30T06:23:12.784Z,18.72
2018-06-30T06:24:12.773Z,18.77
2018-06-30T06:25:12.784Z,18.91
2018-06-30T06:26:12.745Z,18.97
2018-06-30T06:27:12.730Z,19.13
2018-06-30T06:28:12.728Z,19.25
2018-06-30T06:29:12.712Z,19.38
2018-06-30T06:30:12.725Z,19.40
2018-06-30T06:31:12.683Z,19.57
2018-06-30T06:32:12.673Z,19.55
2018-06-30T06:33:12.665Z,19.63
2018-06-30T06:34:12.654Z,19.80
2018-06-30T06:35:12.675Z,19.90
2018-06-30T06:36:12.630Z,20.00
2018-06-30T06:37:12.623Z,20.10
2018-06-30T06:38:12.612Z,20.21
2018-06-30T06:39:12.604Z,20.25
2018-06-30T06:40:12.587Z,20.30
2018-06-30T06:41:12.592Z,20.42
2018-06-30T06:42:12.567Z,20.51
2018-06-30T06:43:12.550Z,20.59
2018-06-30T06:44:12.537Z,20.69
2018-06-30T06:45:12.529Z,20.79
2018-06-30T06:46:12.549Z,20.99
2018-06-30T06:47:12.512Z,21.09
2018-06-30T06:48:12.492Z,21.17
2018-06-30T06:49:12.488Z,21.21
2018-06-30T06:50:12.476Z,21.39
2018-06-30T06:51:12.464Z,21.38
2018-06-30T06:52:12.487Z,21.46
2018-06-30T06:53:12.439Z,21.61
2018-06-30T06:54:12.428Z,21.72
2018-06-30T06:55:12.420Z,21.76
2018-06-30T06:56:12.399Z,21.90
2018-06-30T06:57:12.397Z,22.13
2018-06-30T06:58:12.410Z,22.16
2018-06-30T06:59:12.365Z,22.20
2018-06-30T07:00:12.357Z,22.34
2018-06-30T07:01:12.343Z,22.39
2018-06-30T07:02:12.335Z,22.39
2018-06-30T07:03:12.400Z,22.54
2018-06-30T07:04:12.342Z,22.60
2018-06-30T07:05:12.304Z,22.68
2018-06-30T07:06:12.294Z,22.60
2018-06-30T07:07:12.279Z,22.78
2018-06-30T07:08:12.344Z,22.93
2018-06-30T07:09:12.257Z,22.99
2018-06-30T07:10:12.253Z,23.12
2018-06-30T07:11:12.238Z,23.24
2018-06-30T07:12:12.228Z,23.39
2018-06-30T07:13:12.241Z,23.46
2018-06-30T07:14:12.204Z,23.55
2018-06-30T07:15:12.491Z,23.57
2018-06-30T07:16:12.185Z,23.65
2018-06-30T07:17:12.227Z,23.80
2018-06-30T07:18:12.227Z,23.86
2018-06-30T07:19:12.188Z,23.86
2018-06-30T07:20:12.131Z,24.00
2018-06-30T07:21:12.130Z,24.13
2018-06-30T07:22:12.112Z,24.27
2018-06-30T07:23:12.104Z,24.52
2018-06-30T07:24:12.124Z,24.56
2018-06-30T07:25:12.075Z,24.61
2018-06-30T07:26:12.071Z,24.71
2018-06-30T07:27:12.057Z,24.82
2018-06-30T07:28:12.043Z,24.95
2018-06-30T07:29:12.219Z,24.90
2018-06-30T07:30:12.184Z,25.01
2018-06-30T07:31:12.018Z,25.07
2018-06-30T07:32:12.002Z,25.15
2018-06-30T07:33:11.996Z,25.13
2018-06-30T07:34:11.985Z,25.24
2018-06-30T07:35:12.054Z,25.30
2018-06-30T07:36:11.957Z,25.50
2018-06-30T07:37:11.998Z,25.57
2018-06-30T07:38:11.939Z,25.61
2018-06-30T07:39:11.925Z,25.65
2018-06-30T07:40:11.913Z,25.69
2018-06-30T07:41:11.910Z,25.69
2018-06-30T07:42:11.898Z,25.86
2018-06-30T07:43:11.934Z,25.83
2018-06-30T07:44:11.877Z,25.93
2018-06-30T07:45:11.892Z,26.04
2018-06-30T07:46:11.852Z,26.25
2018-06-30T07:47:11.844Z,26.22
2018-06-30T07:48:11.859Z,26.22
2018-06-30T07:49:11.819Z,26.21
2018-06-30T07:50:11.823Z,26.17
2018-06-30T07:51:11.817Z,26.21
2018-06-30T07:52:11.781Z,26.31
2018-06-30T07:53:11.779Z,26.43
2018-06-30T07:54:11.768Z,26.47
2018-06-30T07:55:11.748Z,26.68
2018-06-30T07:56:11.822Z,26.91
2018-06-30T07:57:11.734Z,26.95
2018-06-30T07:58:11.717Z,26.87
2018-06-30T07:59:11.709Z,27.09
2018-06-30T08:00:11.707Z,27.16
2018-06-30T08:01:11.689Z,27.43
2018-06-30T08:02:11.702Z,27.66
2018-06-30T08:03:11.671Z,27.66
2018-06-30T08:04:11.662Z,27.86
2018-06-30T08:05:11.650Z,27.95
2018-06-30T08:06:11.640Z,27.99
2018-06-30T08:07:11.656Z,28.06
2018-06-30T08:08:11.614Z,28.10
2018-06-30T08:09:11.605Z,28.22
2018-06-30T08:10:11.840Z,28.33
2018-06-30T08:11:11.835Z,28.32
2018-06-30T08:12:11.901Z,28.29
2018-06-30T08:13:11.584Z,28.46
2018-06-30T08:14:11.609Z,28.54
2018-06-30T08:15:11.544Z,28.51
2018-06-30T08:16:11.598Z,28.63
2018-06-30T08:17:11.633Z,28.82
2018-06-30T08:18:11.861Z,28.96
2018-06-30T08:19:11.607Z,28.90
2018-06-30T08:20:11.663Z,28.97
2018-06-30T08:21:11.734Z,29.03
2018-06-30T08:22:11.607Z,29.03
2018-06-30T08:23:11.774Z,29.18
2018-06-30T08:24:11.567Z,29.20
2018-06-30T08:25:11.577Z,29.18
2018-06-30T08:26:11.758Z,29.20
2018-06-30T08:27:11.503Z,29.34
2018-06-30T08:28:11.580Z,29.26
2018-06-30T08:29:11.712Z,29.22
2018-06-30T08:30:11.577Z,29.18
2018-06-30T08:31:11.497Z,29.31
2018-06-30T08:32:11.656Z,29.29
2018-06-30T08:33:11.362Z,29.40
2018-06-30T08:34:11.549Z,29.57
2018-06-30T08:35:11.444Z,29.56
2018-06-30T08:36:11.487Z,29.65
2018-06-30T08:37:11.432Z,29.70
2018-06-30T08:38:11.450Z,29.77
2018-06-30T08:39:11.437Z,29.62
2018-06-30T08:40:11.574Z,29.55
2018-06-30T08:41:11.433Z,29.59
2018-06-30T08:42:11.487Z,29.68
2018-06-30T08:43:11.551Z,29.70
2018-06-30T08:44:11.420Z,29.66
2018-06-30T08:45:11.460Z,29.86
2018-06-30T08:46:11.320Z,29.94
2018-06-30T08:47:11.344Z,30.02
2018-06-30T08:48:11.286Z,30.18
2018-06-30T08:49:11.284Z,30.26
2018-06-30T08:50:11.409Z,30.33
2018-06-30T08:51:11.282Z,30.47
2018-06-30T08:52:11.289Z,30.49
2018-06-30T08:53:11.279Z,30.62
2018-06-30T08:54:11.264Z,30.62
2018-06-30T08:55:11.390Z,30.72
2018-06-30T08:56:11.245Z,30.75
2018-06-30T08:57:11.238Z,30.78
2018-06-30T08:58:11.255Z,30.83
2018-06-30T08:59:11.218Z,31.08
2018-06-30T09:00:11.221Z,31.09
2018-06-30T09:01:11.332Z,31.26
2018-06-30T09:02:11.182Z,31.30
2018-06-30T09:03:11.135Z,31.35
2018-06-30T09:04:11.185Z,31.48
2018-06-30T09:05:11.084Z,31.54
2018-06-30T09:06:11.290Z,31.72
2018-06-30T09:07:11.154Z,31.87
2018-06-30T09:08:11.131Z,31.99
2018-06-30T09:09:11.139Z,32.13
2018-06-30T09:10:11.150Z,32.25
2018-06-30T09:11:11.144Z,32.21
2018-06-30T09:12:11.263Z,32.14
2018-06-30T09:13:11.151Z,32.22
2018-06-30T09:14:11.105Z,32.21
2018-06-30T09:15:11.081Z,32.07
2018-06-30T09:16:11.094Z,32.10
2018-06-30T09:17:11.217Z,32.06
2018-06-30T09:18:11.027Z,32.13
2018-06-30T09:19:11.034Z,32.36
2018-06-30T09:20:11.019Z,32.36
2018-06-30T09:21:11.001Z,32.36
2018-06-30T09:22:11.172Z,32.37
2018-06-30T09:23:10.983Z,32.43
2018-06-30T09:24:11.096Z,32.52
2018-06-30T09:25:10.981Z,32.58
2018-06-30T09:26:10.958Z,32.76
2018-06-30T09:27:11.095Z,32.73
2018-06-30T09:28:10.898Z,32.74
2018-06-30T09:29:10.904Z,32.73
2018-06-30T09:30:10.900Z,32.69
2018-06-30T09:31:11.036Z,32.57
2018-06-30T09:32:10.907Z,32.59
2018-06-30T09:33:11.095Z,32.70
2018-06-30T09:34:10.903Z,32.81
2018-06-30T09:35:10.860Z,32.93
2018-06-30T09:36:10.890Z,32.84
2018-06-30T09:37:10.856Z,32.98
2018-06-30T09:38:10.833Z,33.10
2018-06-30T09:39:10.901Z,33.07
2018-06-30T09:40:10.768Z,33.07
2018-06-30T09:41:10.824Z,33.10
2018-06-30T09:42:10.764Z,33.14
2018-06-30T09:43:10.752Z,33.37
2018-06-30T09:44:10.809Z,33.46
2018-06-30T09:45:10.768Z,33.55
2018-06-30T09:46:10.782Z,33.63
2018-06-30T09:47:10.753Z,33.70
2018-06-30T09:48:10.798Z,33.63
2018-06-30T09:49:10.877Z,33.70
2018-06-30T09:50:10.690Z,33.68
2018-06-30T09:51:10.754Z,33.74
2018-06-30T09:52:10.692Z,33.74
2018-06-30T09:53:10.722Z,33.80
2018-06-30T09:54:10.724Z,33.71
2018-06-30T09:55:10.806Z,33.71
2018-06-30T09:56:10.703Z,33.74
2018-06-30T09:57:10.687Z,33.89
2018-06-30T09:58:10.685Z,34.07
2018-06-30T09:59:10.678Z,34.11
2018-06-30T10:00:10.841Z,34.34
2018-06-30T10:01:10.641Z,34.51
2018-06-30T10:02:10.639Z,34.57
2018-06-30T10:03:10.654Z,34.77
2018-06-30T10:04:10.644Z,34.91
2018-06-30T10:05:10.632Z,34.96
2018-06-30T10:06:10.819Z,34.95
2018-06-30T10:07:10.620Z,34.84
2018-06-30T10:08:10.600Z,35.01
2018-06-30T10:09:10.595Z,35.21
2018-06-30T10:10:10.582Z,35.26
2018-06-30T10:11:10.559Z,35.25
2018-06-30T10:12:10.685Z,35.40
2018-06-30T10:13:10.513Z,35.51
2018-06-30T10:14:10.536Z,35.30
2018-06-30T10:15:10.545Z,35.30
2018-06-30T10:16:10.488Z,35.40
2018-06-30T10:17:10.574Z,35.52
2018-06-30T10:18:10.487Z,35.76
2018-06-30T10:19:10.643Z,35.92
2018-06-30T10:20:10.467Z,36.00
2018-06-30T10:21:10.504Z,35.93
2018-06-30T10:22:10.605Z,35.92
2018-06-30T10:23:10.490Z,36.06
2018-06-30T10:24:10.474Z,36.11
2018-06-30T10:25:10.488Z,36.19
2018-06-30T10:26:10.411Z,36.29
2018-06-30T10:27:10.595Z,36.45
2018-06-30T10:28:10.429Z,36.58
2018-06-30T10:29:10.431Z,36.46
2018-06-30T10:30:10.441Z,36.52
2018-06-30T10:31:10.394Z,36.39
2018-06-30T10:32:10.477Z,36.21
2018-06-30T10:33:10.347Z,36.07
2018-06-30T10:34:10.345Z,36.06
2018-06-30T10:35:10.410Z,36.11
2018-06-30T10:36:10.358Z,36.04
2018-06-30T10:37:10.360Z,36.01
2018-06-30T10:38:10.429Z,35.77
2018-06-30T10:39:10.293Z,35.74
2018-06-30T10:40:10.319Z,35.72
2018-06-30T10:41:10.285Z,35.91
2018-06-30T10:42:10.349Z,36.04
2018-06-30T10:43:10.314Z,36.23
2018-06-30T10:44:10.355Z,36.49
2018-06-30T10:45:10.295Z,36.57
2018-06-30T10:46:10.264Z,36.67
2018-06-30T10:47:10.234Z,36.87
2018-06-30T10:48:10.267Z,37.05
2018-06-30T10:49:10.377Z,37.20
2018-06-30T10:50:10.236Z,37.55
2018-06-30T10:51:10.223Z,37.59
2018-06-30T10:52:10.205Z,37.71
2018-06-30T10:53:10.220Z,37.80
2018-06-30T10:54:10.311Z,37.98
2018-06-30T10:55:10.199Z,38.03
2018-06-30T10:56:10.177Z,37.99
2018-06-30T10:57:10.147Z,37.89
2018-06-30T10:58:10.189Z,37.78
2018-06-30T10:59:10.294Z,37.70
2018-06-30T11:00:10.139Z,37.74
2018-06-30T11:01:10.118Z,37.78
2018-06-30T11:02:10.129Z,37.66
2018-06-30T11:03:10.101Z,37.64
2018-06-30T11:04:10.169Z,37.47
2018-06-30T11:05:10.278Z,37.46
2018-06-30T11:06:10.092Z,37.36
2018-06-30T11:07:10.104Z,37.48
2018-06-30T11:08:10.098Z,37.74
2018-06-30T11:09:10.060Z,38.03
2018-06-30T11:10:10.080Z,38.26
2018-06-30T11:11:10.140Z,38.49
2018-06-30T11:12:10.030Z,38.61
2018-06-30T11:13:09.993Z,38.60
2018-06-30T11:14:10.047Z,38.67
2018-06-30T11:15:10.067Z,38.70
2018-06-30T11:16:10.192Z,38.66
2018-06-30T11:17:10.039Z,38.71
2018-06-30T11:18:10.007Z,38.67
2018-06-30T11:19:10.018Z,38.34
2018-06-30T11:20:10.016Z,38.36
2018-06-30T11:21:10.103Z,38.20
2018-06-30T11:22:10.010Z,38.24
2018-06-30T11:23:10.008Z,38.26
2018-06-30T11:24:09.983Z,38.36
2018-06-30T11:25:09.915Z,38.48
2018-06-30T11:26:10.090Z,38.51
2018-06-30T11:27:09.899Z,38.61
2018-06-30T11:28:09.898Z,38.76
2018-06-30T11:29:09.903Z,38.83
2018-06-30T11:30:09.953Z,38.95
2018-06-30T11:31:10.042Z,39.01
2018-06-30T11:32:09.874Z,38.90
2018-06-30T11:33:09.899Z,39.03
2018-06-30T11:34:09.871Z,39.03
2018-06-30T11:35:09.855Z,38.90
2018-06-30T11:36:09.999Z,38.89
2018-06-30T11:37:09.982Z,38.98
2018-06-30T11:38:09.849Z,38.95
2018-06-30T11:39:09.822Z,39.01
2018-06-30T11:40:09.878Z,39.05
2018-06-30T11:41:10.060Z,39.03
2018-06-30T11:42:09.868Z,39.14
2018-06-30T11:43:09.864Z,39.14
2018-06-30T11:44:09.799Z,39.02
2018-06-30T11:45:09.763Z,38.98
2018-06-30T11:46:09.794Z,39.03
2018-06-30T11:47:09.924Z,39.20
2018-06-30T11:48:09.769Z,39.27
2018-06-30T11:49:09.772Z,39.37
2018-06-30T11:50:09.721Z,39.36
2018-06-30T11:51:09.912Z,39.30
2018-06-30T11:52:09.771Z,39.24
2018-06-30T11:53:10.032Z,39.36
2018-06-30T11:54:09.825Z,39.37
2018-06-30T11:55:09.613Z,39.25
2018-06-30T11:56:09.668Z,39.30
2018-06-30T11:57:09.698Z,39.36
2018-06-30T11:58:09.741Z,39.18
2018-06-30T11:59:09.646Z,39.28
2018-06-30T12:00:09.635Z,39.20
2018-06-30T12:01:09.677Z,39.06
2018-06-30T12:02:09.683Z,39.08
2018-06-30T12:03:09.765Z,38.92
2018-06-30T12:04:09.642Z,38.80
2018-06-30T12:05:09.603Z,38.70
2018-06-30T12:06:09.622Z,38.66
2018-06-30T12:07:09.614Z,38.86
2018-06-30T12:08:09.660Z,38.89
2018-06-30T12:09:09.539Z,39.05
2018-06-30T12:10:09.555Z,39.02
2018-06-30T12:11:09.595Z,38.76
2018-06-30T12:12:09.522Z,38.76
2018-06-30T12:13:09.773Z,38.78
2018-06-30T12:14:09.721Z,38.78
2018-06-30T12:15:09.519Z,38.92
2018-06-30T12:16:09.557Z,38.99
2018-06-30T12:17:09.532Z,39.20
2018-06-30T12:18:09.530Z,39.30
2018-06-30T12:19:09.621Z,39.24
2018-06-30T12:20:09.501Z,39.43
2018-06-30T12:21:09.449Z,39.43
2018-06-30T12:22:09.454Z,39.47
2018-06-30T12:23:09.447Z,39.44
2018-06-30T12:24:09.411Z,39.46
2018-06-30T12:25:09.601Z,39.54
2018-06-30T12:26:09.469Z,39.58
2018-06-30T12:27:09.437Z,39.69
2018-06-30T12:28:09.434Z,39.73
2018-06-30T12:29:09.428Z,39.69
2018-06-30T12:30:09.487Z,39.73
2018-06-30T12:31:09.423Z,39.56
2018-06-30T12:32:09.449Z,39.40
2018-06-30T12:33:09.376Z,39.27
2018-06-30T12:34:09.375Z,39.30
2018-06-30T12:35:09.329Z,38.96
2018-06-30T12:36:09.498Z,38.79
2018-06-30T12:37:09.352Z,38.79
2018-06-30T12:38:09.313Z,39.01
2018-06-30T12:39:09.325Z,39.03
2018-06-30T12:40:09.336Z,39.05
2018-06-30T12:41:09.367Z,39.14
2018-06-30T12:42:09.280Z,39.36
2018-06-30T12:43:09.318Z,39.28
2018-06-30T12:44:09.355Z,39.28
2018-06-30T12:45:09.277Z,39.32
2018-06-30T12:46:09.469Z,39.25
2018-06-30T12:47:09.296Z,39.03
2018-06-30T12:48:09.250Z,38.87
2018-06-30T12:49:09.277Z,39.06
2018-06-30T12:50:09.251Z,39.14
2018-06-30T12:51:09.165Z,39.09
2018-06-30T12:52:09.341Z,39.21